createdAt,value
2018-11-20T00:00:42.956Z,3.30
2018-11-20T00:03:45.479Z,3.30
2018-11-20T00:06:48.188Z,3.30
2018-11-20T00:09:48.388Z,3.30
2018-11-20T00:12:48.658Z,3.20
2018-11-20T00:15:48.450Z,3.10
2018-11-20T00:18:44.453Z,3.10
2018-11-20T00:21:47.254Z,3.20
2018-11-20T00:24:46.646Z,3.20
2018-11-20T00:27:46.053Z,3.20
2018-11-20T00:30:38.436Z,3.10
2018-11-20T00:33:42.934Z,3.20
2018-11-20T00:36:23.171Z,3.10
2018-11-20T00:39:30.612Z,3.10
2018-11-20T00:42:23.481Z,3.20
2018-11-20T00:45:15.428Z,3.20
2018-11-20T00:48:06.518Z,3.20
2018-11-20T00:50:58.146Z,3.20
2018-11-20T00:53:50.780Z,3.20
2018-11-20T00:56:50.085Z,3.20
2018-11-20T00:59:50.320Z,3.20
2018-11-20T01:02:49.852Z,3.20
2018-11-20T01:05:44.479Z,3.20
2018-11-20T01:11:41.175Z,3.20
2018-11-20T01:14:40.868Z,3.10
2018-11-20T01:17:43.547Z,3.10
2018-11-20T01:20:20.542Z,3.10
2018-11-20T01:23:30.686Z,3.10
2018-11-20T01:26:25.602Z,3.10
2018-11-20T01:29:32.792Z,3.10
2018-11-20T01:32:39.977Z,3.00
2018-11-20T01:35:40.273Z,3.00
2018-11-20T01:38:40.380Z,3.00
2018-11-20T01:41:39.871Z,3.00
2018-11-20T01:44:45.169Z,3.00
2018-11-20T01:47:44.775Z,3.00
2018-11-20T01:50:39.624Z,3.00
2018-11-20T01:53:39.037Z,3.00
2018-11-20T01:56:39.155Z,3.00
2018-11-20T01:59:27.068Z,3.00
2018-11-20T02:02:26.970Z,3.00
2018-11-20T02:05:26.263Z,3.00
2018-11-20T02:10:51.525Z,2.90
2018-11-20T02:14:00.117Z,2.90
2018-11-20T02:16:51.209Z,2.80
2018-11-20T02:19:58.434Z,2.90
2018-11-20T02:22:59.083Z,2.90
2018-11-20T02:25:51.917Z,3.00
2018-11-20T02:28:51.754Z,2.90
2018-11-20T02:31:52.029Z,2.90
2018-11-20T02:34:46.763Z,2.90
2018-11-20T02:37:46.079Z,2.90
2018-11-20T02:40:46.280Z,2.90
2018-11-20T02:43:33.075Z,2.90
2018-11-20T02:46:32.764Z,2.90
2018-11-20T02:49:25.462Z,2.90
2018-11-20T02:52:20.441Z,2.80
2018-11-20T02:55:20.267Z,2.80
2018-11-20T02:58:20.260Z,2.80
2018-11-20T03:01:20.209Z,2.70
2018-11-20T03:04:19.974Z,2.80
2018-11-20T03:07:15.306Z,2.80
2018-11-20T03:10:15.379Z,2.80
2018-11-20T03:13:15.174Z,2.70
2018-11-20T03:16:15.122Z,2.70
2018-11-20T03:19:15.076Z,2.70
2018-11-20T03:22:15.141Z,2.70
2018-11-20T03:25:14.686Z,2.70
2018-11-20T03:28:06.954Z,2.70
2018-11-20T03:31:06.904Z,2.70
2018-11-20T03:34:06.989Z,2.70
2018-11-20T03:37:06.699Z,2.70
2018-11-20T03:40:05.068Z,2.70
2018-11-20T03:43:05.497Z,2.70
2018-11-20T03:48:32.768Z,2.70
2018-11-20T03:51:40.225Z,2.70
2018-11-20T03:57:46.395Z,2.70
2018-11-20T04:00:45.916Z,2.60
2018-11-20T04:03:45.770Z,2.60
2018-11-20T04:10:02.329Z,2.60
2018-11-20T04:12:55.626Z,2.70
2018-11-20T04:19:03.705Z,2.60
2018-11-20T04:21:58.665Z,2.60
2018-11-20T04:24:59.178Z,2.60
2018-11-20T04:27:58.992Z,2.60
2018-11-20T04:30:47.531Z,2.50
2018-11-20T04:33:47.256Z,2.50
2018-11-20T04:36:44.826Z,2.40
2018-11-20T04:39:42.307Z,2.40
2018-11-20T04:42:41.861Z,2.50
2018-11-20T04:45:30.027Z,2.60
2018-11-20T04:48:37.261Z,2.50
2018-11-20T04:51:18.069Z,2.50
2018-11-20T04:54:17.638Z,2.40
2018-11-20T04:57:17.414Z,2.40
2018-11-20T05:00:09.001Z,2.50
2018-11-20T05:03:07.776Z,2.50
2018-11-20T05:05:54.135Z,2.50
2018-11-20T05:08:51.333Z,2.50
2018-11-20T05:11:28.818Z,2.50
2018-11-20T05:14:15.445Z,2.50
2018-11-20T05:17:02.271Z,2.40
2018-11-20T05:19:48.901Z,2.50
2018-11-20T05:22:40.125Z,2.50
2018-11-20T05:25:30.996Z,2.50
2018-11-20T05:28:25.496Z,2.60
2018-11-20T05:31:12.999Z,2.50
2018-11-20T05:34:00.147Z,2.50
2018-11-20T05:36:45.331Z,2.50
2018-11-20T05:39:33.507Z,2.50
2018-11-20T05:42:24.364Z,2.50
2018-11-20T05:45:10.982Z,2.50
2018-11-20T05:47:57.506Z,2.50
2018-11-20T05:50:44.318Z,2.50
2018-11-20T05:53:22.301Z,2.50
2018-11-20T05:56:02.375Z,2.40
2018-11-20T05:58:49.139Z,2.40
2018-11-20T06:01:52.621Z,2.40
2018-11-20T06:04:46.731Z,2.30
2018-11-20T06:07:33.255Z,2.40
2018-11-20T06:10:21.579Z,2.40
2018-11-20T06:13:07.646Z,2.40
2018-11-20T06:15:54.572Z,2.40
2018-11-20T06:18:41.397Z,2.40
2018-11-20T06:21:28.034Z,2.40
2018-11-20T06:24:23.386Z,2.30
2018-11-20T06:27:12.179Z,2.30
2018-11-20T06:30:03.104Z,2.30
2018-11-20T06:33:00.074Z,2.30
2018-11-20T06:35:49.943Z,2.30
2018-11-20T06:38:31.302Z,2.30
2018-11-20T06:41:18.370Z,2.30
2018-11-20T06:44:21.483Z,2.20
2018-11-20T06:47:09.735Z,2.30
2018-11-20T06:49:48.613Z,2.30
2018-11-20T06:52:33.407Z,2.40
2018-11-20T06:55:20.029Z,2.40
2018-11-20T06:58:02.259Z,2.40
2018-11-20T07:01:05.683Z,2.30
2018-11-20T07:03:52.645Z,2.40
2018-11-20T07:06:37.120Z,2.40
2018-11-20T07:09:32.400Z,2.40
2018-11-20T07:12:20.582Z,2.50
2018-11-20T07:15:01.211Z,2.50
2018-11-20T07:17:43.000Z,2.50
2018-11-20T07:20:30.000Z,2.60
2018-11-20T07:23:16.905Z,2.60
2018-11-20T07:26:06.647Z,2.70
2018-11-20T07:28:53.417Z,2.70
2018-11-20T07:31:56.537Z,2.70
2018-11-20T07:34:39.500Z,2.80
2018-11-20T07:37:26.412Z,2.90
2018-11-20T07:40:09.920Z,2.90
2018-11-20T07:42:49.116Z,3.00
2018-11-20T07:45:43.219Z,3.10
2018-11-20T07:48:29.980Z,3.10
2018-11-20T07:51:16.737Z,3.10
2018-11-20T07:54:03.534Z,3.20
2018-11-20T07:57:00.355Z,3.20
2018-11-20T07:59:57.355Z,3.20
2018-11-20T08:02:44.146Z,3.30
2018-11-20T08:05:41.422Z,3.30
2018-11-20T08:08:38.824Z,3.30
2018-11-20T08:11:29.420Z,3.40
2018-11-20T08:14:26.540Z,3.40
2018-11-20T08:17:13.178Z,3.50
2018-11-20T08:20:06.979Z,3.50
2018-11-20T08:22:53.879Z,3.50
2018-11-20T08:25:53.928Z,3.60
2018-11-20T08:28:32.383Z,3.60
2018-11-20T08:31:39.085Z,3.70
2018-11-20T08:34:39.633Z,3.70
2018-11-20T08:37:33.389Z,3.80
2018-11-20T08:40:24.351Z,3.80
2018-11-20T08:43:16.420Z,3.90
2018-11-20T08:46:04.573Z,3.90
2018-11-20T08:48:51.048Z,4.00
2018-11-20T08:51:32.103Z,4.10
2018-11-20T08:54:23.072Z,4.20
2018-11-20T08:57:15.557Z,4.30
2018-11-20T09:00:04.299Z,4.40
2018-11-20T09:02:53.706Z,4.50
2018-11-20T09:05:56.878Z,4.60
2018-11-20T09:08:40.727Z,4.60
2018-11-20T09:11:27.728Z,4.60
2018-11-20T09:14:14.526Z,4.60
2018-11-20T09:17:01.165Z,4.70
2018-11-20T09:19:50.208Z,4.70
2018-11-20T09:22:37.207Z,4.80
2018-11-20T09:25:23.115Z,4.80
2018-11-20T09:28:16.941Z,4.90
2018-11-20T09:31:02.904Z,5.00
2018-11-20T09:33:39.349Z,5.00
2018-11-20T09:36:22.525Z,5.10
2018-11-20T09:39:09.419Z,5.10
2018-11-20T09:41:56.591Z,5.20
2018-11-20T09:44:53.357Z,5.30
2018-11-20T09:47:56.244Z,5.40
2018-11-20T09:50:42.822Z,5.40
2018-11-20T09:53:33.593Z,5.50
2018-11-20T09:56:20.585Z,5.60
2018-11-20T09:59:09.973Z,5.70
2018-11-20T10:02:07.459Z,5.70
2018-11-20T10:04:54.116Z,5.80
2018-11-20T10:07:41.038Z,5.80
2018-11-20T10:10:44.697Z,5.80
2018-11-20T10:13:38.669Z,5.90
2018-11-20T10:16:20.242Z,6.00
2018-11-20T10:19:11.793Z,6.10
2018-11-20T10:21:58.810Z,6.10
2018-11-20T10:24:49.915Z,6.20
2018-11-20T10:27:43.704Z,6.20
2018-11-20T10:30:34.079Z,6.20
2018-11-20T10:33:18.557Z,6.20
2018-11-20T10:35:57.748Z,6.20
2018-11-20T10:38:48.991Z,6.10
2018-11-20T10:41:39.917Z,6.10
2018-11-20T10:44:33.883Z,6.10
2018-11-20T10:47:18.857Z,6.10
2018-11-20T10:50:19.112Z,6.10
2018-11-20T10:53:08.150Z,6.10
2018-11-20T10:55:56.302Z,6.10
2018-11-20T10:58:38.186Z,6.10
2018-11-20T11:01:41.573Z,6.10
2018-11-20T11:04:30.350Z,6.10
2018-11-20T11:07:18.125Z,6.00
2018-11-20T11:09:58.029Z,5.90
2018-11-20T11:12:46.219Z,5.90
2018-11-20T11:15:53.415Z,5.80
2018-11-20T11:18:52.371Z,5.80
2018-11-20T11:21:48.004Z,5.80
2018-11-20T11:24:47.973Z,5.80
2018-11-20T11:27:41.222Z,5.90
2018-11-20T11:30:40.998Z,6.00
2018-11-20T11:33:40.948Z,6.10
2018-11-20T11:39:42.293Z,6.10
2018-11-20T11:42:34.117Z,6.00
2018-11-20T11:45:28.898Z,6.00
2018-11-20T11:48:29.181Z,6.10
2018-11-20T11:54:33.991Z,5.90
2018-11-20T11:57:33.348Z,6.00
2018-11-20T12:00:33.667Z,5.90
2018-11-20T12:03:33.618Z,6.00
2018-11-20T12:06:33.070Z,6.10
2018-11-20T12:09:33.279Z,6.20
2018-11-20T12:12:33.031Z,6.30
2018-11-20T12:15:27.205Z,6.40
2018-11-20T12:18:27.246Z,6.50
2018-11-20T12:21:27.099Z,6.60
2018-11-20T12:24:17.277Z,6.60
2018-11-20T12:27:17.270Z,6.60
2018-11-20T12:33:20.604Z,6.70
2018-11-20T12:36:19.509Z,6.80
2018-11-20T12:39:12.779Z,6.80
2018-11-20T12:45:08.343Z,6.90
2018-11-20T12:48:08.244Z,6.80
2018-11-20T12:51:01.105Z,6.80
2018-11-20T12:54:00.923Z,6.80
2018-11-20T12:57:01.112Z,6.80
2018-11-20T13:00:01.374Z,6.90
2018-11-20T13:06:12.925Z,7.00
2018-11-20T13:09:12.698Z,7.10
2018-11-20T13:12:12.781Z,7.10
2018-11-20T13:15:12.881Z,7.10
2018-11-20T13:18:18.903Z,7.10
2018-11-20T13:21:12.722Z,7.20
2018-11-20T13:24:13.626Z,7.20
2018-11-20T13:27:12.737Z,7.10
2018-11-20T13:30:12.811Z,7.10
2018-11-20T13:33:14.044Z,7.00
2018-11-20T13:36:12.362Z,6.90
2018-11-20T13:39:08.890Z,6.80
2018-11-20T13:42:08.209Z,6.70
2018-11-20T13:45:08.133Z,6.60
2018-11-20T13:48:08.183Z,6.60
2018-11-20T13:51:07.925Z,6.60
2018-11-20T13:54:11.827Z,6.50
2018-11-20T13:57:02.950Z,6.50
2018-11-20T14:03:13.791Z,6.40
2018-11-20T14:06:14.105Z,6.30
2018-11-20T14:09:09.291Z,6.30
2018-11-20T14:12:05.835Z,6.20
2018-11-20T14:15:05.297Z,6.10
2018-11-20T14:18:08.462Z,6.00
2018-11-20T14:21:08.591Z,5.90
2018-11-20T14:24:08.256Z,5.90
2018-11-20T14:27:14.144Z,5.80
2018-11-20T14:30:14.001Z,5.70
2018-11-20T14:33:14.220Z,5.70
2018-11-20T14:36:14.706Z,5.60
2018-11-20T14:39:14.338Z,5.60
2018-11-20T14:42:13.935Z,5.60
2018-11-20T14:45:13.778Z,5.60
2018-11-20T14:48:13.628Z,5.60
2018-11-20T14:51:19.235Z,5.50
2018-11-20T14:54:19.324Z,5.30
2018-11-20T14:57:11.257Z,5.10
2018-11-20T15:00:11.578Z,5.00
2018-11-20T15:03:17.426Z,4.80
2018-11-20T15:06:17.168Z,4.50
2018-11-20T15:09:16.843Z,4.30
2018-11-20T15:12:16.529Z,4.10
2018-11-20T15:15:16.682Z,3.90
2018-11-20T15:18:16.871Z,3.80
2018-11-20T15:21:16.897Z,3.60
2018-11-20T15:24:16.409Z,3.50
2018-11-20T15:27:16.320Z,3.40
2018-11-20T15:30:17.088Z,3.40
2018-11-20T15:33:16.782Z,3.30
2018-11-20T15:36:16.575Z,3.20
2018-11-20T15:39:13.189Z,3.20
2018-11-20T15:42:19.457Z,3.00
2018-11-20T15:48:06.369Z,2.60
2018-11-20T15:51:06.404Z,2.30
2018-11-20T15:54:06.230Z,2.20
2018-11-20T15:57:05.906Z,2.00
2018-11-20T16:00:05.974Z,1.80
2018-11-20T16:03:05.739Z,1.60
2018-11-20T16:06:05.083Z,1.50
2018-11-20T16:08:57.303Z,1.30
2018-11-20T16:11:59.046Z,1.20
2018-11-20T16:14:59.162Z,1.10
2018-11-20T16:18:11.256Z,1.00
2018-11-20T16:20:58.161Z,0.90
2018-11-20T16:23:45.114Z,0.90
2018-11-20T16:26:31.852Z,0.90
2018-11-20T16:29:23.167Z,0.90
2018-11-20T16:32:09.986Z,0.80
2018-11-20T16:35:07.276Z,0.80
2018-11-20T16:38:04.638Z,0.80
2018-11-20T16:41:04.651Z,0.70
2018-11-20T16:43:51.637Z,0.70
2018-11-20T16:46:47.878Z,0.70
2018-11-20T16:49:34.729Z,0.70
2018-11-20T16:52:21.775Z,0.80
2018-11-20T16:55:08.464Z,0.80
2018-11-20T16:57:49.623Z,0.90
2018-11-20T17:00:38.502Z,1.00
2018-11-20T17:03:25.452Z,1.00
2018-11-20T17:06:03.623Z,1.20
2018-11-20T17:08:49.412Z,1.20
2018-11-20T17:11:36.233Z,1.30
2018-11-20T17:14:22.281Z,1.30
2018-11-20T17:17:10.542Z,1.30
2018-11-20T17:19:57.243Z,1.40
2018-11-20T17:22:50.799Z,1.40
2018-11-20T17:25:37.370Z,1.50
2018-11-20T17:28:17.971Z,1.50
2018-11-20T17:31:04.377Z,1.60
2018-11-20T17:33:48.305Z,1.60
2018-11-20T17:36:45.395Z,1.60
2018-11-20T17:39:32.517Z,1.50
2018-11-20T17:42:35.926Z,1.20
2018-11-20T17:45:16.621Z,1.00
2018-11-20T17:48:13.952Z,0.80
2018-11-20T17:51:01.183Z,0.70
2018-11-20T17:53:52.272Z,0.60
2018-11-20T17:56:42.071Z,0.50
2018-11-20T17:59:37.084Z,0.40
2018-11-20T18:02:13.876Z,0.30
2018-11-20T18:05:11.203Z,0.30
2018-11-20T18:07:58.209Z,0.20
2018-11-20T18:10:37.852Z,0.10
2018-11-20T18:13:28.816Z,0.10
2018-11-20T18:16:15.617Z,0.00
2018-11-20T18:18:59.768Z,0.00
2018-11-20T18:22:03.379Z,0.00
2018-11-20T18:24:43.250Z,-0.10
2018-11-20T18:27:37.636Z,-0.10
2018-11-20T18:30:16.308Z,0.00
2018-11-20T18:33:04.530Z,0.00
2018-11-20T18:35:51.452Z,-0.10
2018-11-20T18:38:54.883Z,-0.20
2018-11-20T18:41:57.976Z,-0.30
2018-11-20T18:44:49.592Z,-0.40
2018-11-20T18:47:43.469Z,-0.40
2018-11-20T18:50:30.671Z,-0.50
2018-11-20T18:53:24.512Z,-0.60
2018-11-20T18:56:15.545Z,-0.70
2018-11-20T18:59:06.524Z,-0.70
2018-11-20T19:02:00.259Z,-0.70
2018-11-20T19:04:56.004Z,-0.80
2018-11-20T19:07:53.008Z,-0.80
2018-11-20T19:10:39.787Z,-0.80
2018-11-20T19:13:39.909Z,-0.70
2018-11-20T19:16:30.199Z,-0.80
2018-11-20T19:19:17.207Z,-0.90
2018-11-20T19:22:17.722Z,-0.90
2018-11-20T19:25:04.820Z,-1.00
2018-11-20T19:28:08.237Z,-1.10
2018-11-20T19:30:49.485Z,-1.10
2018-11-20T19:33:49.629Z,-1.10
2018-11-20T19:36:43.364Z,-1.30
2018-11-20T19:39:34.233Z,-1.30
2018-11-20T19:42:11.647Z,-1.30
2018-11-20T19:44:56.986Z,-1.50
2018-11-20T19:47:48.383Z,-1.50
2018-11-20T19:50:37.531Z,-1.60
2018-11-20T19:53:37.859Z,-1.70
2018-11-20T19:56:25.284Z,-1.70
2018-11-20T19:59:12.001Z,-1.70
2018-11-20T20:01:58.708Z,-1.70
2018-11-20T20:04:45.691Z,-1.70
2018-11-20T20:07:32.443Z,-1.70
2018-11-20T20:10:31.029Z,-1.70
2018-11-20T20:13:30.659Z,-1.80
2018-11-20T20:16:21.652Z,-1.90
2018-11-20T20:19:12.963Z,-1.90
2018-11-20T20:22:13.090Z,-1.80
2018-11-20T20:25:01.251Z,-1.80
2018-11-20T20:28:04.310Z,-1.80
2018-11-20T20:30:55.364Z,-1.80
2018-11-20T20:33:40.209Z,-1.90
2018-11-20T20:36:34.299Z,-1.80
2018-11-20T20:39:21.278Z,-1.80
2018-11-20T20:42:17.569Z,-1.80
2018-11-20T20:45:24.051Z,-1.80
2018-11-20T20:48:18.929Z,-1.90
2018-11-20T20:51:06.368Z,-2.00
2018-11-20T20:53:52.981Z,-2.10
2018-11-20T20:56:39.518Z,-2.10
2018-11-20T20:59:23.729Z,-2.10
2018-11-20T21:02:10.726Z,-2.00
2018-11-20T21:04:57.249Z,-1.90
2018-11-20T21:07:44.400Z,-1.90
2018-11-20T21:10:41.337Z,-1.90
2018-11-20T21:13:28.635Z,-1.90
2018-11-20T21:16:22.704Z,-1.90
2018-11-20T21:19:22.812Z,-1.90
2018-11-20T21:22:13.635Z,-1.80
2018-11-20T21:25:04.003Z,-1.80
2018-11-20T21:27:54.783Z,-1.90
2018-11-20T21:30:43.489Z,-1.90
2018-11-20T21:33:30.688Z,-1.90
2018-11-20T21:36:28.013Z,-1.90
2018-11-20T21:39:14.937Z,-1.90
2018-11-20T21:42:43.070Z,-1.90
2018-11-20T21:45:42.916Z,-2.00
2018-11-20T21:48:33.097Z,-2.00
2018-11-20T21:51:32.358Z,-1.90
2018-11-20T21:54:18.966Z,-2.00
2018-11-20T21:57:00.730Z,-2.00
2018-11-20T21:59:54.167Z,-2.10
2018-11-20T22:02:43.767Z,-2.10
2018-11-20T22:05:36.301Z,-2.10
2018-11-20T22:08:29.974Z,-2.10
2018-11-20T22:11:16.225Z,-2.20
2018-11-20T22:13:55.370Z,-2.20
2018-11-20T22:16:57.915Z,-2.30
2018-11-20T22:19:54.324Z,-2.30
2018-11-20T22:22:50.959Z,-2.30
2018-11-20T22:25:50.414Z,-2.40
2018-11-20T22:28:38.025Z,-2.40
2018-11-20T22:31:25.943Z,-2.40
2018-11-20T22:34:31.947Z,-2.50
2018-11-20T22:37:34.252Z,-2.60
2018-11-20T22:40:14.929Z,-2.70
2018-11-20T22:43:01.250Z,-2.70
2018-11-20T22:45:51.674Z,-2.80
2018-11-20T22:48:37.754Z,-2.80
2018-11-20T22:51:20.535Z,-2.90
2018-11-20T22:53:58.825Z,-3.00
2018-11-20T22:56:45.647Z,-3.00
2018-11-20T22:59:32.987Z,-3.00
2018-11-20T23:02:24.551Z,-3.10
2018-11-20T23:05:09.723Z,-3.20
2018-11-20T23:07:48.839Z,-3.20
2018-11-20T23:10:18.398Z,-3.20
2018-11-20T23:12:46.539Z,-3.20
2018-11-20T23:15:15.580Z,-3.20
2018-11-20T23:17:43.745Z,-3.20
2018-11-20T23:20:12.603Z,-3.20
2018-11-20T23:22:40.834Z,-3.10
2018-11-20T23:25:10.974Z,-3.10
2018-11-20T23:27:39.142Z,-3.10
2018-11-20T23:30:12.036Z,-3.10
2018-11-20T23:32:40.559Z,-3.20
2018-11-20T23:35:10.196Z,-3.10
2018-11-20T23:37:39.211Z,-3.10
2018-11-20T23:40:08.255Z,-3.20
2018-11-20T23:42:36.788Z,-3.20
2018-11-20T23:45:07.271Z,-3.30
2018-11-20T23:47:35.476Z,-3.30
2018-11-20T23:50:03.669Z,-3.30
2018-11-20T23:52:31.836Z,-3.30
2018-11-20T23:55:00.033Z,-3.40
2018-11-20T23:57:28.169Z,-3.40
2018-11-20T23:59:56.644Z,-3.50
